Terminal Aerodrome Forecast
Issued by NWS Shreveport, LA

Home | Current Version | Previous Version | Text Only | Print | Product List | Glossary On
Versions: 1 2 3 4 5 6 7 8 9 10 11 12 13 14
000
FTUS44 KSHV 030500
TAFGGG
TAF
KGGG 030524Z 0306/0406 10004KT 3SM BR OVC002
      TEMPO 0306/0310 1SM BR
     FM031300 14005KT 5SM BR OVC008
     FM031800 18010KT P6SM BKN015
     FM032200 17008KT P6SM SCT020
     FM040400 16008KT P6SM VCTS BKN025CB=

USA.gov is the U.S. government's official web portal to all federal, state and local government web resources and services.